sensor_id;sensor_type;location;lat;lon;timestamp;temperature;humidity
83120;SHT31;73001;51.784;4.660;2023-12-20T00:01:04;8.67;81.19
83120;SHT31;73001;51.784;4.660;2023-12-20T00:03:30;8.70;81.65
83120;SHT31;73001;51.784;4.660;2023-12-20T00:06:01;8.73;81.44
83120;SHT31;73001;51.784;4.660;2023-12-20T00:08:26;8.70;81.15
83120;SHT31;73001;51.784;4.660;2023-12-20T00:10:52;8.64;81.33
83120;SHT31;73001;51.784;4.660;2023-12-20T00:13:18;8.60;81.66
83120;SHT31;73001;51.784;4.660;2023-12-20T00:15:43;8.53;81.75
83120;SHT31;73001;51.784;4.660;2023-12-20T00:18:09;8.49;81.93
83120;SHT31;73001;51.784;4.660;2023-12-20T00:20:34;8.47;81.16
83120;SHT31;73001;51.784;4.660;2023-12-20T00:23:00;8.50;81.65
83120;SHT31;73001;51.784;4.660;2023-12-20T00:25:27;8.47;81.75
83120;SHT31;73001;51.784;4.660;2023-12-20T00:27:52;8.49;81.91
83120;SHT31;73001;51.784;4.660;2023-12-20T00:30:21;8.54;81.55
83120;SHT31;73001;51.784;4.660;2023-12-20T00:32:47;8.50;81.81
83120;SHT31;73001;51.784;4.660;2023-12-20T00:35:13;8.53;81.54
83120;SHT31;73001;51.784;4.660;2023-12-20T00:37:39;8.57;81.11
83120;SHT31;73001;51.784;4.660;2023-12-20T00:40:05;8.57;81.58
83120;SHT31;73001;51.784;4.660;2023-12-20T00:42:32;8.60;81.60
83120;SHT31;73001;51.784;4.660;2023-12-20T00:44:59;8.56;81.63
83120;SHT31;73001;51.784;4.660;2023-12-20T00:47:24;8.52;81.82
83120;SHT31;73001;51.784;4.660;2023-12-20T00:49:53;8.54;81.92
83120;SHT31;73001;51.784;4.660;2023-12-20T00:52:22;8.50;81.99
83120;SHT31;73001;51.784;4.660;2023-12-20T00:54:48;8.56;81.65
83120;SHT31;73001;51.784;4.660;2023-12-20T00:57:14;8.49;81.79
83120;SHT31;73001;51.784;4.660;2023-12-20T00:59:40;8.53;80.96
83120;SHT31;73001;51.784;4.660;2023-12-20T01:02:06;8.52;80.74
83120;SHT31;73001;51.784;4.660;2023-12-20T01:04:33;8.44;81.36
83120;SHT31;73001;51.784;4.660;2023-12-20T01:06:59;8.46;81.42
83120;SHT31;73001;51.784;4.660;2023-12-20T01:09:25;8.46;81.50
83120;SHT31;73001;51.784;4.660;2023-12-20T01:11:54;8.39;81.26
83120;SHT31;73001;51.784;4.660;2023-12-20T01:14:23;8.40;81.35
83120;SHT31;73001;51.784;4.660;2023-12-20T01:16:48;8.39;81.35
83120;SHT31;73001;51.784;4.660;2023-12-20T01:19:14;8.39;81.15
83120;SHT31;73001;51.784;4.660;2023-12-20T01:21:42;8.35;81.50
83120;SHT31;73001;51.784;4.660;2023-12-20T01:24:09;8.37;81.60
83120;SHT31;73001;51.784;4.660;2023-12-20T01:26:37;8.35;81.74
83120;SHT31;73001;51.784;4.660;2023-12-20T01:29:04;8.33;81.88
83120;SHT31;73001;51.784;4.660;2023-12-20T01:31:30;8.40;81.27
83120;SHT31;73001;51.784;4.660;2023-12-20T01:33:56;8.42;81.25
83120;SHT31;73001;51.784;4.660;2023-12-20T01:36:24;8.37;81.52
83120;SHT31;73001;51.784;4.660;2023-12-20T01:38:53;8.33;81.79
83120;SHT31;73001;51.784;4.660;2023-12-20T01:41:20;8.36;81.75
83120;SHT31;73001;51.784;4.660;2023-12-20T01:43:45;8.36;81.95
83120;SHT31;73001;51.784;4.660;2023-12-20T01:46:12;8.35;82.28
83120;SHT31;73001;51.784;4.660;2023-12-20T01:48:42;8.30;82.43
83120;SHT31;73001;51.784;4.660;2023-12-20T01:51:09;8.37;82.32
83120;SHT31;73001;51.784;4.660;2023-12-20T01:53:36;8.46;82.06
83120;SHT31;73001;51.784;4.660;2023-12-20T01:56:07;8.54;81.19
83120;SHT31;73001;51.784;4.660;2023-12-20T01:58:34;8.57;81.80
83120;SHT31;73001;51.784;4.660;2023-12-20T02:01:00;8.56;81.63
83120;SHT31;73001;51.784;4.660;2023-12-20T02:03:28;8.61;81.73
83120;SHT31;73001;51.784;4.660;2023-12-20T02:05:57;8.61;81.47
83120;SHT31;73001;51.784;4.660;2023-12-20T02:08:23;8.63;81.26
83120;SHT31;73001;51.784;4.660;2023-12-20T02:10:48;8.67;81.26
83120;SHT31;73001;51.784;4.660;2023-12-20T02:13:15;8.61;81.54
83120;SHT31;73001;51.784;4.660;2023-12-20T02:15:44;8.74;81.61
83120;SHT31;73001;51.784;4.660;2023-12-20T02:18:09;8.78;81.47
83120;SHT31;73001;51.784;4.660;2023-12-20T02:20:35;8.66;81.70
83120;SHT31;73001;51.784;4.660;2023-12-20T02:23:02;8.77;81.47
83120;SHT31;73001;51.784;4.660;2023-12-20T02:25:30;8.68;81.67
83120;SHT31;73001;51.784;4.660;2023-12-20T02:27:55;8.83;81.31
83120;SHT31;73001;51.784;4.660;2023-12-20T02:30:28;8.78;81.44
83120;SHT31;73001;51.784;4.660;2023-12-20T02:32:59;8.78;81.37
83120;SHT31;73001;51.784;4.660;2023-12-20T02:35:25;8.84;81.26
83120;SHT31;73001;51.784;4.660;2023-12-20T02:37:51;8.95;80.88
83120;SHT31;73001;51.784;4.660;2023-12-20T02:40:17;8.92;80.87
83120;SHT31;73001;51.784;4.660;2023-12-20T02:42:43;8.89;80.94
83120;SHT31;73001;51.784;4.660;2023-12-20T02:45:11;8.91;81.05
83120;SHT31;73001;51.784;4.660;2023-12-20T02:47:39;9.00;80.99
83120;SHT31;73001;51.784;4.660;2023-12-20T02:50:05;9.05;80.81
83120;SHT31;73001;51.784;4.660;2023-12-20T02:52:33;9.04;80.77
83120;SHT31;73001;51.784;4.660;2023-12-20T02:54:59;9.04;79.92
83120;SHT31;73001;51.784;4.660;2023-12-20T02:57:25;9.07;80.40
83120;SHT31;73001;51.784;4.660;2023-12-20T02:59:56;8.97;80.53
83120;SHT31;73001;51.784;4.660;2023-12-20T03:02:22;9.01;80.77
83120;SHT31;73001;51.784;4.660;2023-12-20T03:04:48;8.98;80.72
83120;SHT31;73001;51.784;4.660;2023-12-20T03:07:13;9.01;80.70
83120;SHT31;73001;51.784;4.660;2023-12-20T03:09:39;8.98;80.69
83120;SHT31;73001;51.784;4.660;2023-12-20T03:12:05;8.98;80.83
83120;SHT31;73001;51.784;4.660;2023-12-20T03:14:30;8.89;80.96
83120;SHT31;73001;51.784;4.660;2023-12-20T03:17:04;8.94;80.96
83120;SHT31;73001;51.784;4.660;2023-12-20T03:19:31;9.00;80.88
83120;SHT31;73001;51.784;4.660;2023-12-20T03:21:57;9.00;80.88
83120;SHT31;73001;51.784;4.660;2023-12-20T03:24:27;9.01;80.61
83120;SHT31;73001;51.784;4.660;2023-12-20T03:26:53;8.98;81.02
83120;SHT31;73001;51.784;4.660;2023-12-20T03:29:20;9.10;80.79
83120;SHT31;73001;51.784;4.660;2023-12-20T03:31:46;9.05;80.74
83120;SHT31;73001;51.784;4.660;2023-12-20T03:34:13;9.05;80.55
83120;SHT31;73001;51.784;4.660;2023-12-20T03:36:45;9.08;80.54
83120;SHT31;73001;51.784;4.660;2023-12-20T03:39:13;9.12;80.33
83120;SHT31;73001;51.784;4.660;2023-12-20T03:41:39;9.08;80.76
83120;SHT31;73001;51.784;4.660;2023-12-20T03:44:05;9.07;80.62
83120;SHT31;73001;51.784;4.660;2023-12-20T03:46:31;9.03;80.47
83120;SHT31;73001;51.784;4.660;2023-12-20T03:49:00;9.10;80.07
83120;SHT31;73001;51.784;4.660;2023-12-20T03:51:25;9.12;79.86
83120;SHT31;73001;51.784;4.660;2023-12-20T03:53:51;9.04;79.85
83120;SHT31;73001;51.784;4.660;2023-12-20T03:56:23;8.92;79.85
83120;SHT31;73001;51.784;4.660;2023-12-20T03:58:48;8.95;79.77
83120;SHT31;73001;51.784;4.660;2023-12-20T04:01:14;8.97;79.70
83120;SHT31;73001;51.784;4.660;2023-12-20T04:03:40;8.97;79.55
83120;SHT31;73001;51.784;4.660;2023-12-20T04:06:09;8.94;79.34
83120;SHT31;73001;51.784;4.660;2023-12-20T04:08:35;8.80;79.53
83120;SHT31;73001;51.784;4.660;2023-12-20T04:11:05;8.78;79.19
83120;SHT31;73001;51.784;4.660;2023-12-20T04:13:31;8.73;79.68
83120;SHT31;73001;51.784;4.660;2023-12-20T04:15:57;8.67;79.69
83120;SHT31;73001;51.784;4.660;2023-12-20T04:18:23;8.71;79.58
83120;SHT31;73001;51.784;4.660;2023-12-20T04:20:50;8.61;79.75
83120;SHT31;73001;51.784;4.660;2023-12-20T04:23:17;8.59;79.90
83120;SHT31;73001;51.784;4.660;2023-12-20T04:25:45;8.61;79.89
83120;SHT31;73001;51.784;4.660;2023-12-20T04:28:13;8.63;79.88
83120;SHT31;73001;51.784;4.660;2023-12-20T04:30:42;8.54;80.18
83120;SHT31;73001;51.784;4.660;2023-12-20T04:33:08;8.57;79.94
83120;SHT31;73001;51.784;4.660;2023-12-20T04:35:35;8.61;80.19
83120;SHT31;73001;51.784;4.660;2023-12-20T04:38:01;8.60;80.01
83120;SHT31;73001;51.784;4.660;2023-12-20T04:40:27;8.64;79.93
83120;SHT31;73001;51.784;4.660;2023-12-20T04:42:52;8.54;80.09
83120;SHT31;73001;51.784;4.660;2023-12-20T04:45:19;8.57;79.94
83120;SHT31;73001;51.784;4.660;2023-12-20T04:47:49;8.56;80.13
83120;SHT31;73001;51.784;4.660;2023-12-20T04:50:17;8.60;79.86
83120;SHT31;73001;51.784;4.660;2023-12-20T04:52:43;8.54;79.95
83120;SHT31;73001;51.784;4.660;2023-12-20T04:55:08;8.50;80.18
83120;SHT31;73001;51.784;4.660;2023-12-20T04:57:41;8.49;80.24
83120;SHT31;73001;51.784;4.660;2023-12-20T05:00:09;8.50;80.24
83120;SHT31;73001;51.784;4.660;2023-12-20T05:02:35;8.53;80.18
83120;SHT31;73001;51.784;4.660;2023-12-20T05:05:02;8.53;80.07
83120;SHT31;73001;51.784;4.660;2023-12-20T05:07:28;8.50;79.91
83120;SHT31;73001;51.784;4.660;2023-12-20T05:09:54;8.39;79.82
83120;SHT31;73001;51.784;4.660;2023-12-20T05:12:21;8.39;80.08
83120;SHT31;73001;51.784;4.660;2023-12-20T05:14:47;8.35;80.13
83120;SHT31;73001;51.784;4.660;2023-12-20T05:17:13;8.32;80.02
83120;SHT31;73001;51.784;4.660;2023-12-20T05:19:39;8.33;80.24
83120;SHT31;73001;51.784;4.660;2023-12-20T05:22:04;8.26;80.24
83120;SHT31;73001;51.784;4.660;2023-12-20T05:24:30;8.33;79.92
83120;SHT31;73001;51.784;4.660;2023-12-20T05:26:55;8.28;80.01
83120;SHT31;73001;51.784;4.660;2023-12-20T05:29:21;8.25;80.11
83120;SHT31;73001;51.784;4.660;2023-12-20T05:31:46;8.25;80.07
83120;SHT31;73001;51.784;4.660;2023-12-20T05:34:14;8.19;80.25
83120;SHT31;73001;51.784;4.660;2023-12-20T05:36:42;8.17;80.27
83120;SHT31;73001;51.784;4.660;2023-12-20T05:39:07;8.23;79.86
83120;SHT31;73001;51.784;4.660;2023-12-20T05:41:33;8.25;79.88
83120;SHT31;73001;51.784;4.660;2023-12-20T05:43:59;8.19;80.15
83120;SHT31;73001;51.784;4.660;2023-12-20T05:46:25;8.19;80.15
83120;SHT31;73001;51.784;4.660;2023-12-20T05:48:54;8.22;80.03
83120;SHT31;73001;51.784;4.660;2023-12-20T05:51:21;8.25;80.14
83120;SHT31;73001;51.784;4.660;2023-12-20T05:53:47;8.26;79.91
83120;SHT31;73001;51.784;4.660;2023-12-20T05:56:21;8.22;80.23
83120;SHT31;73001;51.784;4.660;2023-12-20T05:58:47;8.22;80.40
83120;SHT31;73001;51.784;4.660;2023-12-20T06:01:19;8.23;80.55
83120;SHT31;73001;51.784;4.660;2023-12-20T06:03:45;8.25;80.42
83120;SHT31;73001;51.784;4.660;2023-12-20T06:06:15;8.22;80.56
83120;SHT31;73001;51.784;4.660;2023-12-20T06:08:41;8.21;80.57
83120;SHT31;73001;51.784;4.660;2023-12-20T06:11:13;8.19;80.72
83120;SHT31;73001;51.784;4.660;2023-12-20T06:13:38;8.25;80.88
83120;SHT31;73001;51.784;4.660;2023-12-20T06:16:10;8.32;80.43
83120;SHT31;73001;51.784;4.660;2023-12-20T06:18:36;8.28;80.61
83120;SHT31;73001;51.784;4.660;2023-12-20T06:21:02;8.30;80.72
83120;SHT31;73001;51.784;4.660;2023-12-20T06:23:29;8.35;80.43
83120;SHT31;73001;51.784;4.660;2023-12-20T06:25:55;8.37;80.23
83120;SHT31;73001;51.784;4.660;2023-12-20T06:28:21;8.37;80.24
83120;SHT31;73001;51.784;4.660;2023-12-20T06:30:47;8.39;80.20
83120;SHT31;73001;51.784;4.660;2023-12-20T06:33:14;8.36;80.56
83120;SHT31;73001;51.784;4.660;2023-12-20T06:35:40;8.37;80.67
83120;SHT31;73001;51.784;4.660;2023-12-20T06:38:05;8.43;80.54
83120;SHT31;73001;51.784;4.660;2023-12-20T06:40:35;8.47;80.65
83120;SHT31;73001;51.784;4.660;2023-12-20T06:43:04;8.56;80.39
83120;SHT31;73001;51.784;4.660;2023-12-20T06:45:33;8.59;80.31
83120;SHT31;73001;51.784;4.660;2023-12-20T06:47:58;8.68;79.39
83120;SHT31;73001;51.784;4.660;2023-12-20T06:50:27;8.77;79.62
83120;SHT31;73001;51.784;4.660;2023-12-20T06:52:56;8.73;79.72
83120;SHT31;73001;51.784;4.660;2023-12-20T06:55:25;8.74;79.79
83120;SHT31;73001;51.784;4.660;2023-12-20T06:57:51;8.75;79.79
83120;SHT31;73001;51.784;4.660;2023-12-20T07:00:17;8.71;79.89
83120;SHT31;73001;51.784;4.660;2023-12-20T07:02:51;8.73;79.80
83120;SHT31;73001;51.784;4.660;2023-12-20T07:05:17;8.73;79.80
83120;SHT31;73001;51.784;4.660;2023-12-20T07:07:51;8.75;79.92
83120;SHT31;73001;51.784;4.660;2023-12-20T07:10:17;8.88;79.52
83120;SHT31;73001;51.784;4.660;2023-12-20T07:12:43;8.88;79.38
83120;SHT31;73001;51.784;4.660;2023-12-20T07:15:10;8.92;79.26
83120;SHT31;73001;51.784;4.660;2023-12-20T07:17:38;8.98;78.94
83120;SHT31;73001;51.784;4.660;2023-12-20T07:20:04;8.95;78.98
83120;SHT31;73001;51.784;4.660;2023-12-20T07:22:30;8.92;78.90
83120;SHT31;73001;51.784;4.660;2023-12-20T07:24:59;8.85;79.40
83120;SHT31;73001;51.784;4.660;2023-12-20T07:27:25;8.83;79.24
83120;SHT31;73001;51.784;4.660;2023-12-20T07:29:54;8.84;79.16
83120;SHT31;73001;51.784;4.660;2023-12-20T07:32:20;8.78;79.18
83120;SHT31;73001;51.784;4.660;2023-12-20T07:34:47;8.80;79.25
83120;SHT31;73001;51.784;4.660;2023-12-20T07:37:12;8.78;79.18
83120;SHT31;73001;51.784;4.660;2023-12-20T07:39:42;8.68;79.74
83120;SHT31;73001;51.784;4.660;2023-12-20T07:42:08;8.71;79.69
83120;SHT31;73001;51.784;4.660;2023-12-20T07:44:34;8.73;79.35
83120;SHT31;73001;51.784;4.660;2023-12-20T07:47:04;8.70;79.45
83120;SHT31;73001;51.784;4.660;2023-12-20T07:49:30;8.63;79.74
83120;SHT31;73001;51.784;4.660;2023-12-20T07:51:57;8.60;79.71
83120;SHT31;73001;51.784;4.660;2023-12-20T07:54:23;8.57;79.90
83120;SHT31;73001;51.784;4.660;2023-12-20T07:56:49;8.64;79.84
83120;SHT31;73001;51.784;4.660;2023-12-20T07:59:14;8.59;79.81
83120;SHT31;73001;51.784;4.660;2023-12-20T08:01:40;8.61;79.80
83120;SHT31;73001;51.784;4.660;2023-12-20T08:04:08;8.61;79.72
83120;SHT31;73001;51.784;4.660;2023-12-20T08:06:34;8.61;79.80
83120;SHT31;73001;51.784;4.660;2023-12-20T08:09:00;8.66;79.87
83120;SHT31;73001;51.784;4.660;2023-12-20T08:11:25;8.68;79.76
83120;SHT31;73001;51.784;4.660;2023-12-20T08:13:51;8.70;80.01
83120;SHT31;73001;51.784;4.660;2023-12-20T08:16:16;8.77;80.08
83120;SHT31;73001;51.784;4.660;2023-12-20T08:18:43;8.77;80.17
83120;SHT31;73001;51.784;4.660;2023-12-20T08:21:09;8.75;80.31
83120;SHT31;73001;51.784;4.660;2023-12-20T08:23:34;8.75;80.44
83120;SHT31;73001;51.784;4.660;2023-12-20T08:26:09;8.87;80.36
83120;SHT31;73001;51.784;4.660;2023-12-20T08:28:36;8.97;80.02
83120;SHT31;73001;51.784;4.660;2023-12-20T08:31:04;8.92;80.28
83120;SHT31;73001;51.784;4.660;2023-12-20T08:33:30;8.97;80.33
83120;SHT31;73001;51.784;4.660;2023-12-20T08:35:58;9.00;80.41
83120;SHT31;73001;51.784;4.660;2023-12-20T08:38:30;9.04;80.19
83120;SHT31;73001;51.784;4.660;2023-12-20T08:40:56;9.07;80.11
83120;SHT31;73001;51.784;4.660;2023-12-20T08:43:21;9.19;79.79
83120;SHT31;73001;51.784;4.660;2023-12-20T08:45:47;9.25;79.63
83120;SHT31;73001;51.784;4.660;2023-12-20T08:48:13;9.31;79.69
83120;SHT31;73001;51.784;4.660;2023-12-20T08:50:46;9.45;79.40
83120;SHT31;73001;51.784;4.660;2023-12-20T08:53:24;9.50;79.12
83120;SHT31;73001;51.784;4.660;2023-12-20T08:55:50;9.55;78.97
83120;SHT31;73001;51.784;4.660;2023-12-20T08:58:17;9.57;78.75
83120;SHT31;73001;51.784;4.660;2023-12-20T09:00:45;9.63;78.66
83120;SHT31;73001;51.784;4.660;2023-12-20T09:03:11;9.63;78.98
83120;SHT31;73001;51.784;4.660;2023-12-20T09:05:42;9.59;79.02
83120;SHT31;73001;51.784;4.660;2023-12-20T09:08:11;9.55;79.22
83120;SHT31;73001;51.784;4.660;2023-12-20T09:10:42;9.55;79.17
83120;SHT31;73001;51.784;4.660;2023-12-20T09:13:08;9.52;79.41
83120;SHT31;73001;51.784;4.660;2023-12-20T09:15:36;9.65;79.20
83120;SHT31;73001;51.784;4.660;2023-12-20T09:18:03;9.66;79.21
83120;SHT31;73001;51.784;4.660;2023-12-20T09:20:30;9.69;79.26
83120;SHT31;73001;51.784;4.660;2023-12-20T09:23:04;9.73;79.19
83120;SHT31;73001;51.784;4.660;2023-12-20T09:25:31;9.70;79.44
83120;SHT31;73001;51.784;4.660;2023-12-20T09:27:57;9.72;79.45
83120;SHT31;73001;51.784;4.660;2023-12-20T09:30:24;9.72;79.45
83120;SHT31;73001;51.784;4.660;2023-12-20T09:32:51;9.73;79.32
83120;SHT31;73001;51.784;4.660;2023-12-20T09:35:17;9.76;79.51
83120;SHT31;73001;51.784;4.660;2023-12-20T09:37:42;9.87;79.25
83120;SHT31;73001;51.784;4.660;2023-12-20T09:40:13;9.93;78.59
83120;SHT31;73001;51.784;4.660;2023-12-20T09:45:15;9.89;78.39
83120;SHT31;73001;51.784;4.660;2023-12-20T09:47:43;9.85;78.68
83120;SHT31;73001;51.784;4.660;2023-12-20T09:50:09;9.94;78.67
83120;SHT31;73001;51.784;4.660;2023-12-20T09:52:37;9.96;78.43
83120;SHT31;73001;51.784;4.660;2023-12-20T09:55:07;10.04;78.19
83120;SHT31;73001;51.784;4.660;2023-12-20T09:57:34;10.06;78.32
83120;SHT31;73001;51.784;4.660;2023-12-20T09:59:59;10.08;78.12
83120;SHT31;73001;51.784;4.660;2023-12-20T10:02:25;10.00;78.41
83120;SHT31;73001;51.784;4.660;2023-12-20T10:04:54;10.10;78.28
83120;SHT31;73001;51.784;4.660;2023-12-20T10:07:22;10.17;78.27
83120;SHT31;73001;51.784;4.660;2023-12-20T10:09:51;10.21;77.93
83120;SHT31;73001;51.784;4.660;2023-12-20T10:12:19;10.21;78.05
83120;SHT31;73001;51.784;4.660;2023-12-20T10:14:45;10.22;78.08
83120;SHT31;73001;51.784;4.660;2023-12-20T10:17:10;10.25;78.09
83120;SHT31;73001;51.784;4.660;2023-12-20T10:19:37;10.31;77.94
83120;SHT31;73001;51.784;4.660;2023-12-20T10:22:04;10.40;77.65
83120;SHT31;73001;51.784;4.660;2023-12-20T10:24:31;10.40;77.74
83120;SHT31;73001;51.784;4.660;2023-12-20T10:27:02;10.34;77.82
83120;SHT31;73001;51.784;4.660;2023-12-20T10:29:35;10.49;77.94
83120;SHT31;73001;51.784;4.660;2023-12-20T10:32:27;10.48;77.70
83120;SHT31;73001;51.784;4.660;2023-12-20T10:34:54;10.54;77.50
83120;SHT31;73001;51.784;4.660;2023-12-20T10:37:21;10.55;77.55
83120;SHT31;73001;51.784;4.660;2023-12-20T10:39:54;10.54;77.44
83120;SHT31;73001;51.784;4.660;2023-12-20T10:42:27;10.55;77.56
83120;SHT31;73001;51.784;4.660;2023-12-20T10:44:55;10.52;77.58
83120;SHT31;73001;51.784;4.660;2023-12-20T10:47:21;10.58;77.76
83120;SHT31;73001;51.784;4.660;2023-12-20T10:49:48;10.64;77.64
83120;SHT31;73001;51.784;4.660;2023-12-20T10:52:16;10.59;77.71
83120;SHT31;73001;51.784;4.660;2023-12-20T10:54:42;10.65;77.71
83120;SHT31;73001;51.784;4.660;2023-12-20T10:57:08;10.65;77.68
83120;SHT31;73001;51.784;4.660;2023-12-20T10:59:36;10.72;77.52
83120;SHT31;73001;51.784;4.660;2023-12-20T11:02:06;10.73;77.69
83120;SHT31;73001;51.784;4.660;2023-12-20T11:04:44;10.80;77.40
83120;SHT31;73001;51.784;4.660;2023-12-20T11:07:45;10.79;77.47
83120;SHT31;73001;51.784;4.660;2023-12-20T11:10:21;10.82;77.34
83120;SHT31;73001;51.784;4.660;2023-12-20T11:13:01;10.71;77.65
83120;SHT31;73001;51.784;4.660;2023-12-20T11:15:27;10.78;77.51
83120;SHT31;73001;51.784;4.660;2023-12-20T11:18:01;10.75;77.54
83120;SHT31;73001;51.784;4.660;2023-12-20T11:20:38;10.79;77.27
83120;SHT31;73001;51.784;4.660;2023-12-20T11:23:04;10.78;77.34
83120;SHT31;73001;51.784;4.660;2023-12-20T11:25:29;10.86;77.58
83120;SHT31;73001;51.784;4.660;2023-12-20T11:28:09;10.93;77.06
83120;SHT31;73001;51.784;4.660;2023-12-20T11:33:16;11.09;76.61
83120;SHT31;73001;51.784;4.660;2023-12-20T11:35:43;10.96;76.79
83120;SHT31;73001;51.784;4.660;2023-12-20T11:38:10;10.96;76.93
83120;SHT31;73001;51.784;4.660;2023-12-20T11:40:56;11.08;76.87
83120;SHT31;73001;51.784;4.660;2023-12-20T11:43:38;11.10;76.71
83120;SHT31;73001;51.784;4.660;2023-12-20T11:46:08;11.15;76.58
83120;SHT31;73001;51.784;4.660;2023-12-20T11:48:39;11.22;76.05
83120;SHT31;73001;51.784;4.660;2023-12-20T11:51:13;11.31;76.37
83120;SHT31;73001;51.784;4.660;2023-12-20T11:53:39;11.46;75.79
83120;SHT31;73001;51.784;4.660;2023-12-20T11:56:06;11.61;75.47
83120;SHT31;73001;51.784;4.660;2023-12-20T11:58:33;11.64;75.09
83120;SHT31;73001;51.784;4.660;2023-12-20T12:01:01;11.70;74.96
83120;SHT31;73001;51.784;4.660;2023-12-20T12:03:32;11.73;75.07
83120;SHT31;73001;51.784;4.660;2023-12-20T12:05:58;11.68;74.54
83120;SHT31;73001;51.784;4.660;2023-12-20T12:08:23;11.68;74.87
83120;SHT31;73001;51.784;4.660;2023-12-20T12:10:50;11.63;74.69
83120;SHT31;73001;51.784;4.660;2023-12-20T12:13:16;11.51;75.25
83120;SHT31;73001;51.784;4.660;2023-12-20T12:15:45;11.51;75.33
83120;SHT31;73001;51.784;4.660;2023-12-20T12:18:19;11.49;75.28
83120;SHT31;73001;51.784;4.660;2023-12-20T12:20:45;11.54;75.41
83120;SHT31;73001;51.784;4.660;2023-12-20T12:23:11;11.68;75.36
83120;SHT31;73001;51.784;4.660;2023-12-20T12:25:37;11.64;75.29
83120;SHT31;73001;51.784;4.660;2023-12-20T12:28:03;11.75;74.93
83120;SHT31;73001;51.784;4.660;2023-12-20T12:30:29;11.67;75.07
83120;SHT31;73001;51.784;4.660;2023-12-20T12:32:57;11.66;75.29
83120;SHT31;73001;51.784;4.660;2023-12-20T12:35:24;11.71;75.07
83120;SHT31;73001;51.784;4.660;2023-12-20T12:37:51;11.54;75.66
83120;SHT31;73001;51.784;4.660;2023-12-20T12:40:17;11.49;75.69
83120;SHT31;73001;51.784;4.660;2023-12-20T12:42:47;11.44;75.39
83120;SHT31;73001;51.784;4.660;2023-12-20T12:45:16;11.46;75.78
83120;SHT31;73001;51.784;4.660;2023-12-20T12:47:41;11.47;75.62
83120;SHT31;73001;51.784;4.660;2023-12-20T12:50:08;11.43;75.74
83120;SHT31;73001;51.784;4.660;2023-12-20T12:52:35;11.37;75.86
83120;SHT31;73001;51.784;4.660;2023-12-20T12:55:00;11.39;75.62
83120;SHT31;73001;51.784;4.660;2023-12-20T12:57:26;11.43;75.95
83120;SHT31;73001;51.784;4.660;2023-12-20T12:59:52;11.37;76.03
83120;SHT31;73001;51.784;4.660;2023-12-20T13:02:37;11.33;76.33
83120;SHT31;73001;51.784;4.660;2023-12-20T13:05:08;11.39;75.93
83120;SHT31;73001;51.784;4.660;2023-12-20T13:07:36;11.40;75.93
83120;SHT31;73001;51.784;4.660;2023-12-20T13:10:03;11.26;76.18
83120;SHT31;73001;51.784;4.660;2023-12-20T13:12:29;11.22;76.24
83120;SHT31;73001;51.784;4.660;2023-12-20T13:14:55;11.20;76.22
83120;SHT31;73001;51.784;4.660;2023-12-20T13:17:21;11.23;76.29
83120;SHT31;73001;51.784;4.660;2023-12-20T13:19:47;11.22;76.60
83120;SHT31;73001;51.784;4.660;2023-12-20T13:22:13;11.30;76.22
83120;SHT31;73001;51.784;4.660;2023-12-20T13:24:39;11.30;76.23
83120;SHT31;73001;51.784;4.660;2023-12-20T13:27:08;11.27;76.11
83120;SHT31;73001;51.784;4.660;2023-12-20T13:29:34;11.29;76.41
83120;SHT31;73001;51.784;4.660;2023-12-20T13:32:03;11.24;76.60
83120;SHT31;73001;51.784;4.660;2023-12-20T13:34:29;11.19;76.72
83120;SHT31;73001;51.784;4.660;2023-12-20T13:36:56;11.26;76.32
83120;SHT31;73001;51.784;4.660;2023-12-20T13:39:22;11.24;76.19
83120;SHT31;73001;51.784;4.660;2023-12-20T13:41:48;11.18;76.20
83120;SHT31;73001;51.784;4.660;2023-12-20T13:44:14;11.09;76.54
83120;SHT31;73001;51.784;4.660;2023-12-20T13:46:42;11.08;76.61
83120;SHT31;73001;51.784;4.660;2023-12-20T13:49:07;11.00;76.92
83120;SHT31;73001;51.784;4.660;2023-12-20T13:51:35;11.02;76.72
83120;SHT31;73001;51.784;4.660;2023-12-20T13:54:00;11.05;76.81
83120;SHT31;73001;51.784;4.660;2023-12-20T13:56:26;11.16;76.47
83120;SHT31;73001;51.784;4.660;2023-12-20T13:58:55;11.19;75.91
83120;SHT31;73001;51.784;4.660;2023-12-20T14:01:21;11.09;76.17
83120;SHT31;73001;51.784;4.660;2023-12-20T14:03:48;11.13;76.33
83120;SHT31;73001;51.784;4.660;2023-12-20T14:06:14;11.22;76.00
83120;SHT31;73001;51.784;4.660;2023-12-20T14:08:44;11.15;76.01
83120;SHT31;73001;51.784;4.660;2023-12-20T14:11:09;11.02;76.51
83120;SHT31;73001;51.784;4.660;2023-12-20T14:13:35;10.92;76.96
83120;SHT31;73001;51.784;4.660;2023-12-20T14:16:01;10.93;77.00
83120;SHT31;73001;51.784;4.660;2023-12-20T14:18:29;10.91;76.79
83120;SHT31;73001;51.784;4.660;2023-12-20T14:20:55;10.85;77.11
83120;SHT31;73001;51.784;4.660;2023-12-20T14:23:26;10.86;77.12
83120;SHT31;73001;51.784;4.660;2023-12-20T14:25:52;10.80;76.87
83120;SHT31;73001;51.784;4.660;2023-12-20T14:28:18;10.82;77.05
83120;SHT31;73001;51.784;4.660;2023-12-20T14:30:44;10.79;77.19
83120;SHT31;73001;51.784;4.660;2023-12-20T14:33:11;10.82;77.13
83120;SHT31;73001;51.784;4.660;2023-12-20T14:35:37;10.79;77.05
83120;SHT31;73001;51.784;4.660;2023-12-20T14:38:02;10.71;77.42
83120;SHT31;73001;51.784;4.660;2023-12-20T14:40:28;10.73;77.37
83120;SHT31;73001;51.784;4.660;2023-12-20T14:42:54;10.72;77.55
83120;SHT31;73001;51.784;4.660;2023-12-20T14:45:19;10.72;77.64
83120;SHT31;73001;51.784;4.660;2023-12-20T14:47:45;10.72;77.74
83120;SHT31;73001;51.784;4.660;2023-12-20T14:50:15;10.72;77.71
83120;SHT31;73001;51.784;4.660;2023-12-20T14:52:46;10.73;77.65
83120;SHT31;73001;51.784;4.660;2023-12-20T14:55:12;10.79;77.71
83120;SHT31;73001;51.784;4.660;2023-12-20T14:57:38;10.72;77.88
83120;SHT31;73001;51.784;4.660;2023-12-20T15:00:06;10.68;77.89
83120;SHT31;73001;51.784;4.660;2023-12-20T15:02:32;10.71;77.99
83120;SHT31;73001;51.784;4.660;2023-12-20T15:04:57;10.71;78.12
83120;SHT31;73001;51.784;4.660;2023-12-20T15:07:23;10.76;77.90
83120;SHT31;73001;51.784;4.660;2023-12-20T15:09:49;10.71;78.18
83120;SHT31;73001;51.784;4.660;2023-12-20T15:12:15;10.64;78.63
83120;SHT31;73001;51.784;4.660;2023-12-20T15:14:41;10.67;78.70
83120;SHT31;73001;51.784;4.660;2023-12-20T15:17:08;10.67;78.75
83120;SHT31;73001;51.784;4.660;2023-12-20T15:19:34;10.59;79.07
83120;SHT31;73001;51.784;4.660;2023-12-20T15:22:01;10.64;78.99
83120;SHT31;73001;51.784;4.660;2023-12-20T15:24:29;10.64;79.06
83120;SHT31;73001;51.784;4.660;2023-12-20T15:27:06;10.59;79.20
83120;SHT31;73001;51.784;4.660;2023-12-20T15:29:31;10.65;79.14
83120;SHT31;73001;51.784;4.660;2023-12-20T15:31:57;10.65;79.23
83120;SHT31;73001;51.784;4.660;2023-12-20T15:34:23;10.48;79.85
83120;SHT31;73001;51.784;4.660;2023-12-20T15:36:49;10.51;80.04
83120;SHT31;73001;51.784;4.660;2023-12-20T15:39:18;10.52;80.01
83120;SHT31;73001;51.784;4.660;2023-12-20T15:41:51;10.55;79.86
83120;SHT31;73001;51.784;4.660;2023-12-20T15:44:18;10.44;80.42
83120;SHT31;73001;51.784;4.660;2023-12-20T15:46:44;10.45;80.23